sensor_id;sensor_type;location;lat;lon;timestamp;temperature;humidity
3850;DHT22;1940;51.052;13.678;2023-08-01T00:02:10;19.30;82.70
3850;DHT22;1940;51.052;13.678;2023-08-01T00:04:36;19.30;83.00
3850;DHT22;1940;51.052;13.678;2023-08-01T00:07:01;19.30;82.80
3850;DHT22;1940;51.052;13.678;2023-08-01T00:09:27;19.20;82.60
3850;DHT22;1940;51.052;13.678;2023-08-01T00:11:52;19.30;82.70
3850;DHT22;1940;51.052;13.678;2023-08-01T00:14:18;19.30;82.70
3850;DHT22;1940;51.052;13.678;2023-08-01T00:16:45;19.30;82.30
3850;DHT22;1940;51.052;13.678;2023-08-01T00:19:11;19.30;82.60
3850;DHT22;1940;51.052;13.678;2023-08-01T00:21:37;19.30;82.30
3850;DHT22;1940;51.052;13.678;2023-08-01T00:24:03;19.30;82.40
3850;DHT22;1940;51.052;13.678;2023-08-01T00:26:29;19.30;82.30
3850;DHT22;1940;51.052;13.678;2023-08-01T00:28:54;19.30;82.50
3850;DHT22;1940;51.052;13.678;2023-08-01T00:31:20;19.40;82.30
3850;DHT22;1940;51.052;13.678;2023-08-01T00:33:45;19.40;82.60
3850;DHT22;1940;51.052;13.678;2023-08-01T00:36:11;19.40;82.80
3850;DHT22;1940;51.052;13.678;2023-08-01T00:38:37;19.40;82.60
3850;DHT22;1940;51.052;13.678;2023-08-01T00:41:03;19.40;82.70
3850;DHT22;1940;51.052;13.678;2023-08-01T00:43:28;19.30;82.10
3850;DHT22;1940;51.052;13.678;2023-08-01T00:45:59;19.30;82.10
3850;DHT22;1940;51.052;13.678;2023-08-01T00:48:26;19.30;82.60
3850;DHT22;1940;51.052;13.678;2023-08-01T00:50:52;19.20;82.40
3850;DHT22;1940;51.052;13.678;2023-08-01T00:53:18;19.20;82.30
3850;DHT22;1940;51.052;13.678;2023-08-01T00:55:43;19.30;81.40
3850;DHT22;1940;51.052;13.678;2023-08-01T00:58:09;19.40;81.70
3850;DHT22;1940;51.052;13.678;2023-08-01T01:00:35;19.30;80.70
3850;DHT22;1940;51.052;13.678;2023-08-01T01:03:01;19.30;81.00
3850;DHT22;1940;51.052;13.678;2023-08-01T01:05:29;19.40;81.10
3850;DHT22;1940;51.052;13.678;2023-08-01T01:07:57;19.40;80.90
3850;DHT22;1940;51.052;13.678;2023-08-01T01:10:23;19.40;80.10
3850;DHT22;1940;51.052;13.678;2023-08-01T01:12:48;19.40;80.20
3850;DHT22;1940;51.052;13.678;2023-08-01T01:15:15;19.40;79.90
3850;DHT22;1940;51.052;13.678;2023-08-01T01:17:41;19.50;79.40
3850;DHT22;1940;51.052;13.678;2023-08-01T01:20:06;19.50;79.20
3850;DHT22;1940;51.052;13.678;2023-08-01T01:22:32;19.50;79.20
3850;DHT22;1940;51.052;13.678;2023-08-01T01:24:59;19.60;79.10
3850;DHT22;1940;51.052;13.678;2023-08-01T01:27:27;19.60;78.90
3850;DHT22;1940;51.052;13.678;2023-08-01T01:29:54;19.60;79.10
3850;DHT22;1940;51.052;13.678;2023-08-01T01:32:20;19.70;78.40
3850;DHT22;1940;51.052;13.678;2023-08-01T01:34:46;19.70;78.20
3850;DHT22;1940;51.052;13.678;2023-08-01T01:37:12;19.70;78.20
3850;DHT22;1940;51.052;13.678;2023-08-01T01:39:37;19.70;78.50
3850;DHT22;1940;51.052;13.678;2023-08-01T01:42:03;19.70;78.50
3850;DHT22;1940;51.052;13.678;2023-08-01T01:44:28;19.70;78.10
3850;DHT22;1940;51.052;13.678;2023-08-01T01:46:54;19.70;78.10
3850;DHT22;1940;51.052;13.678;2023-08-01T01:49:19;19.70;78.50
3850;DHT22;1940;51.052;13.678;2023-08-01T01:51:45;19.70;78.80
3850;DHT22;1940;51.052;13.678;2023-08-01T01:54:10;19.70;79.20
3850;DHT22;1940;51.052;13.678;2023-08-01T01:56:36;19.60;79.40
3850;DHT22;1940;51.052;13.678;2023-08-01T01:59:02;19.60;80.00
3850;DHT22;1940;51.052;13.678;2023-08-01T02:01:27;19.40;80.70
3850;DHT22;1940;51.052;13.678;2023-08-01T02:03:53;19.40;81.80
3850;DHT22;1940;51.052;13.678;2023-08-01T02:06:18;19.20;82.70
3850;DHT22;1940;51.052;13.678;2023-08-01T02:08:44;19.10;84.00
3850;DHT22;1940;51.052;13.678;2023-08-01T02:11:10;18.90;84.80
3850;DHT22;1940;51.052;13.678;2023-08-01T02:13:35;18.70;86.00
3850;DHT22;1940;51.052;13.678;2023-08-01T02:16:01;18.60;86.90
3850;DHT22;1940;51.052;13.678;2023-08-01T02:18:26;18.50;87.70
3850;DHT22;1940;51.052;13.678;2023-08-01T02:20:52;18.40;88.50
3850;DHT22;1940;51.052;13.678;2023-08-01T02:23:17;18.20;89.20
3850;DHT22;1940;51.052;13.678;2023-08-01T02:25:43;18.20;89.50
3850;DHT22;1940;51.052;13.678;2023-08-01T02:28:08;18.10;89.80
3850;DHT22;1940;51.052;13.678;2023-08-01T02:30:35;18.00;90.40
3850;DHT22;1940;51.052;13.678;2023-08-01T02:33:00;17.90;90.70
3850;DHT22;1940;51.052;13.678;2023-08-01T02:35:26;17.80;91.20
3850;DHT22;1940;51.052;13.678;2023-08-01T02:37:53;17.80;91.20
3850;DHT22;1940;51.052;13.678;2023-08-01T02:40:19;17.80;91.30
3850;DHT22;1940;51.052;13.678;2023-08-01T02:42:44;17.80;91.40
3850;DHT22;1940;51.052;13.678;2023-08-01T02:45:10;17.80;91.40
3850;DHT22;1940;51.052;13.678;2023-08-01T02:47:35;17.80;91.60
3850;DHT22;1940;51.052;13.678;2023-08-01T02:50:01;17.70;91.50
3850;DHT22;1940;51.052;13.678;2023-08-01T02:52:26;17.70;91.60
3850;DHT22;1940;51.052;13.678;2023-08-01T02:54:53;17.70;91.90
3850;DHT22;1940;51.052;13.678;2023-08-01T02:57:19;17.70;91.80
3850;DHT22;1940;51.052;13.678;2023-08-01T02:59:44;17.60;91.60
3850;DHT22;1940;51.052;13.678;2023-08-01T03:02:10;17.70;91.80
3850;DHT22;1940;51.052;13.678;2023-08-01T03:04:35;17.70;91.70
3850;DHT22;1940;51.052;13.678;2023-08-01T03:07:01;17.80;91.50
3850;DHT22;1940;51.052;13.678;2023-08-01T03:09:26;17.70;91.70
3850;DHT22;1940;51.052;13.678;2023-08-01T03:11:52;17.80;91.50
3850;DHT22;1940;51.052;13.678;2023-08-01T03:14:17;17.80;91.50
3850;DHT22;1940;51.052;13.678;2023-08-01T03:16:43;17.80;91.70
3850;DHT22;1940;51.052;13.678;2023-08-01T03:19:09;17.80;91.30
3850;DHT22;1940;51.052;13.678;2023-08-01T03:21:34;17.80;91.20
3850;DHT22;1940;51.052;13.678;2023-08-01T03:24:01;17.90;91.20
3850;DHT22;1940;51.052;13.678;2023-08-01T03:26:26;17.90;91.30
3850;DHT22;1940;51.052;13.678;2023-08-01T03:28:55;17.90;91.20
3850;DHT22;1940;51.052;13.678;2023-08-01T03:31:22;17.90;91.20
3850;DHT22;1940;51.052;13.678;2023-08-01T03:33:47;18.00;90.60
3850;DHT22;1940;51.052;13.678;2023-08-01T03:36:13;18.00;90.50
3850;DHT22;1940;51.052;13.678;2023-08-01T03:38:39;17.90;90.50
3850;DHT22;1940;51.052;13.678;2023-08-01T03:41:04;17.90;90.80
3850;DHT22;1940;51.052;13.678;2023-08-01T03:43:30;17.90;90.90
3850;DHT22;1940;51.052;13.678;2023-08-01T03:45:56;17.90;90.70
3850;DHT22;1940;51.052;13.678;2023-08-01T03:51:00;18.00;90.50
3850;DHT22;1940;51.052;13.678;2023-08-01T03:53:26;18.00;90.60
3850;DHT22;1940;51.052;13.678;2023-08-01T03:55:51;18.00;90.30
3850;DHT22;1940;51.052;13.678;2023-08-01T03:58:17;18.10;90.30
3850;DHT22;1940;51.052;13.678;2023-08-01T04:00:42;18.10;90.00
3850;DHT22;1940;51.052;13.678;2023-08-01T04:03:08;18.20;90.10
3850;DHT22;1940;51.052;13.678;2023-08-01T04:05:33;18.20;90.00
3850;DHT22;1940;51.052;13.678;2023-08-01T04:07:59;18.30;89.80
3850;DHT22;1940;51.052;13.678;2023-08-01T04:10:24;18.40;89.40
3850;DHT22;1940;51.052;13.678;2023-08-01T04:12:50;18.40;89.50
3850;DHT22;1940;51.052;13.678;2023-08-01T04:15:16;18.50;88.90
3850;DHT22;1940;51.052;13.678;2023-08-01T04:17:41;18.50;88.60
3850;DHT22;1940;51.052;13.678;2023-08-01T04:20:07;18.50;88.40
3850;DHT22;1940;51.052;13.678;2023-08-01T04:22:33;18.60;88.30
3850;DHT22;1940;51.052;13.678;2023-08-01T04:25:00;18.60;87.90
3850;DHT22;1940;51.052;13.678;2023-08-01T04:27:26;18.60;88.10
3850;DHT22;1940;51.052;13.678;2023-08-01T04:29:51;18.50;88.00
3850;DHT22;1940;51.052;13.678;2023-08-01T04:32:18;18.50;88.00
3850;DHT22;1940;51.052;13.678;2023-08-01T04:34:43;18.60;88.10
3850;DHT22;1940;51.052;13.678;2023-08-01T04:37:09;18.60;87.60
3850;DHT22;1940;51.052;13.678;2023-08-01T04:39:35;18.60;87.50
3850;DHT22;1940;51.052;13.678;2023-08-01T04:42:01;18.70;87.40
3850;DHT22;1940;51.052;13.678;2023-08-01T04:44:28;18.70;87.40
3850;DHT22;1940;51.052;13.678;2023-08-01T04:46:54;18.70;87.50
3850;DHT22;1940;51.052;13.678;2023-08-01T04:49:20;18.80;87.30
3850;DHT22;1940;51.052;13.678;2023-08-01T04:51:47;18.90;87.20
3850;DHT22;1940;51.052;13.678;2023-08-01T04:54:12;19.00;86.40
3850;DHT22;1940;51.052;13.678;2023-08-01T04:56:38;19.10;86.30
3850;DHT22;1940;51.052;13.678;2023-08-01T04:59:03;19.10;85.80
3850;DHT22;1940;51.052;13.678;2023-08-01T05:01:29;19.10;86.40
3850;DHT22;1940;51.052;13.678;2023-08-01T05:03:54;19.10;86.20
3850;DHT22;1940;51.052;13.678;2023-08-01T05:06:20;19.00;86.50
3850;DHT22;1940;51.052;13.678;2023-08-01T05:08:46;19.00;87.00
3850;DHT22;1940;51.052;13.678;2023-08-01T05:11:11;19.00;87.60
3850;DHT22;1940;51.052;13.678;2023-08-01T05:13:37;19.00;87.10
3850;DHT22;1940;51.052;13.678;2023-08-01T05:19:18;19.00;88.20
3850;DHT22;1940;51.052;13.678;2023-08-01T05:21:43;18.90;87.50
3850;DHT22;1940;51.052;13.678;2023-08-01T05:24:09;18.90;88.30
3850;DHT22;1940;51.052;13.678;2023-08-01T05:26:35;18.90;88.40
3850;DHT22;1940;51.052;13.678;2023-08-01T05:29:00;18.80;88.50
3850;DHT22;1940;51.052;13.678;2023-08-01T05:31:26;18.80;88.30
3850;DHT22;1940;51.052;13.678;2023-08-01T05:37:10;18.80;89.20
3850;DHT22;1940;51.052;13.678;2023-08-01T05:39:35;18.80;89.20
3850;DHT22;1940;51.052;13.678;2023-08-01T05:42:01;18.80;89.30
3850;DHT22;1940;51.052;13.678;2023-08-01T05:44:26;18.80;89.50
3850;DHT22;1940;51.052;13.678;2023-08-01T05:46:52;18.80;89.80
3850;DHT22;1940;51.052;13.678;2023-08-01T05:49:17;18.90;89.90
3850;DHT22;1940;51.052;13.678;2023-08-01T05:51:43;18.90;90.00
3850;DHT22;1940;51.052;13.678;2023-08-01T05:54:08;18.90;90.00
3850;DHT22;1940;51.052;13.678;2023-08-01T05:56:34;19.00;90.30
3850;DHT22;1940;51.052;13.678;2023-08-01T05:59:00;19.00;90.50
3850;DHT22;1940;51.052;13.678;2023-08-01T06:01:25;19.00;90.10
3850;DHT22;1940;51.052;13.678;2023-08-01T06:03:51;19.00;89.90
3850;DHT22;1940;51.052;13.678;2023-08-01T06:06:16;19.10;89.60
3850;DHT22;1940;51.052;13.678;2023-08-01T06:08:42;19.20;89.60
3850;DHT22;1940;51.052;13.678;2023-08-01T06:11:07;19.40;89.40
3850;DHT22;1940;51.052;13.678;2023-08-01T06:13:33;19.50;88.70
3850;DHT22;1940;51.052;13.678;2023-08-01T06:15:58;19.60;88.60
3850;DHT22;1940;51.052;13.678;2023-08-01T06:18:24;19.60;87.80
3850;DHT22;1940;51.052;13.678;2023-08-01T06:20:49;19.70;87.50
3850;DHT22;1940;51.052;13.678;2023-08-01T06:23:15;19.70;86.70
3850;DHT22;1940;51.052;13.678;2023-08-01T06:25:40;19.70;87.20
3850;DHT22;1940;51.052;13.678;2023-08-01T06:28:06;19.60;87.40
3850;DHT22;1940;51.052;13.678;2023-08-01T06:30:31;19.50;87.80
3850;DHT22;1940;51.052;13.678;2023-08-01T06:32:57;19.50;88.30
3850;DHT22;1940;51.052;13.678;2023-08-01T06:35:22;19.50;88.00
3850;DHT22;1940;51.052;13.678;2023-08-01T06:37:48;19.40;88.40
3850;DHT22;1940;51.052;13.678;2023-08-01T06:40:14;19.30;88.60
3850;DHT22;1940;51.052;13.678;2023-08-01T06:42:39;19.30;88.90
3850;DHT22;1940;51.052;13.678;2023-08-01T06:45:06;19.20;90.00
3850;DHT22;1940;51.052;13.678;2023-08-01T06:47:32;19.00;90.70
3850;DHT22;1940;51.052;13.678;2023-08-01T06:49:57;18.90;91.80
3850;DHT22;1940;51.052;13.678;2023-08-01T06:52:23;18.70;92.60
3850;DHT22;1940;51.052;13.678;2023-08-01T06:54:48;18.60;93.30
3850;DHT22;1940;51.052;13.678;2023-08-01T06:57:14;18.60;93.30
3850;DHT22;1940;51.052;13.678;2023-08-01T06:59:39;18.60;93.90
3850;DHT22;1940;51.052;13.678;2023-08-01T07:02:05;18.60;94.20
3850;DHT22;1940;51.052;13.678;2023-08-01T07:04:31;18.60;94.00
3850;DHT22;1940;51.052;13.678;2023-08-01T07:06:57;18.70;93.20
3850;DHT22;1940;51.052;13.678;2023-08-01T07:09:22;18.80;92.30
3850;DHT22;1940;51.052;13.678;2023-08-01T07:11:48;18.80;92.80
3850;DHT22;1940;51.052;13.678;2023-08-01T07:14:13;18.90;92.20
3850;DHT22;1940;51.052;13.678;2023-08-01T07:16:39;19.00;91.70
3850;DHT22;1940;51.052;13.678;2023-08-01T07:19:04;19.10;91.50
3850;DHT22;1940;51.052;13.678;2023-08-01T07:21:30;19.20;91.50
3850;DHT22;1940;51.052;13.678;2023-08-01T07:23:55;19.30;91.50
3850;DHT22;1940;51.052;13.678;2023-08-01T07:26:23;19.40;90.80
3850;DHT22;1940;51.052;13.678;2023-08-01T07:28:48;19.60;90.30
3850;DHT22;1940;51.052;13.678;2023-08-01T07:31:14;19.90;89.60
3850;DHT22;1940;51.052;13.678;2023-08-01T07:33:39;20.10;89.40
3850;DHT22;1940;51.052;13.678;2023-08-01T07:36:05;20.20;88.50
3850;DHT22;1940;51.052;13.678;2023-08-01T07:38:30;20.40;87.60
3850;DHT22;1940;51.052;13.678;2023-08-01T07:40:57;20.30;87.10
3850;DHT22;1940;51.052;13.678;2023-08-01T07:43:22;20.30;87.80
3850;DHT22;1940;51.052;13.678;2023-08-01T07:45:48;20.30;87.60
3850;DHT22;1940;51.052;13.678;2023-08-01T07:48:16;20.30;87.50
3850;DHT22;1940;51.052;13.678;2023-08-01T07:50:41;20.20;87.40
3850;DHT22;1940;51.052;13.678;2023-08-01T07:53:07;20.00;88.20
3850;DHT22;1940;51.052;13.678;2023-08-01T07:55:35;20.00;88.70
3850;DHT22;1940;51.052;13.678;2023-08-01T07:58:01;20.10;89.00
3850;DHT22;1940;51.052;13.678;2023-08-01T08:00:27;20.20;88.80
3850;DHT22;1940;51.052;13.678;2023-08-01T08:02:53;20.40;87.70
3850;DHT22;1940;51.052;13.678;2023-08-01T08:05:19;20.60;86.80
3850;DHT22;1940;51.052;13.678;2023-08-01T08:07:45;20.80;86.80
3850;DHT22;1940;51.052;13.678;2023-08-01T08:10:10;21.00;85.80
3850;DHT22;1940;51.052;13.678;2023-08-01T08:12:36;21.20;85.20
3850;DHT22;1940;51.052;13.678;2023-08-01T08:15:02;21.20;84.00
3850;DHT22;1940;51.052;13.678;2023-08-01T08:17:27;21.20;84.40
3850;DHT22;1940;51.052;13.678;2023-08-01T08:19:53;21.40;83.50
3850;DHT22;1940;51.052;13.678;2023-08-01T08:22:19;21.50;82.00
3850;DHT22;1940;51.052;13.678;2023-08-01T08:24:44;21.50;81.40
3850;DHT22;1940;51.052;13.678;2023-08-01T08:27:10;21.70;81.90
3850;DHT22;1940;51.052;13.678;2023-08-01T08:29:35;22.10;81.10
3850;DHT22;1940;51.052;13.678;2023-08-01T08:32:01;22.30;81.10
3850;DHT22;1940;51.052;13.678;2023-08-01T08:34:27;22.00;80.40
3850;DHT22;1940;51.052;13.678;2023-08-01T08:36:55;22.10;79.40
3850;DHT22;1940;51.052;13.678;2023-08-01T08:39:20;22.10;80.60
3850;DHT22;1940;51.052;13.678;2023-08-01T08:41:48;22.00;80.50
3850;DHT22;1940;51.052;13.678;2023-08-01T08:44:18;21.90;80.20
3850;DHT22;1940;51.052;13.678;2023-08-01T08:46:51;22.00;79.90
3850;DHT22;1940;51.052;13.678;2023-08-01T08:49:18;21.90;79.60
3850;DHT22;1940;51.052;13.678;2023-08-01T08:51:46;21.90;79.70
3850;DHT22;1940;51.052;13.678;2023-08-01T08:54:11;21.80;79.90
3850;DHT22;1940;51.052;13.678;2023-08-01T08:56:38;21.50;80.60
3850;DHT22;1940;51.052;13.678;2023-08-01T08:59:06;21.50;81.10
3850;DHT22;1940;51.052;13.678;2023-08-01T09:01:32;21.50;81.60
3850;DHT22;1940;51.052;13.678;2023-08-01T09:03:59;21.60;82.00
3850;DHT22;1940;51.052;13.678;2023-08-01T09:06:31;21.70;81.30
3850;DHT22;1940;51.052;13.678;2023-08-01T09:11:27;21.60;80.00
3850;DHT22;1940;51.052;13.678;2023-08-01T09:13:53;21.60;79.80
3850;DHT22;1940;51.052;13.678;2023-08-01T09:16:19;21.40;80.50
3850;DHT22;1940;51.052;13.678;2023-08-01T09:18:52;21.20;81.40
3850;DHT22;1940;51.052;13.678;2023-08-01T09:21:22;21.00;81.20
3850;DHT22;1940;51.052;13.678;2023-08-01T09:23:48;20.70;82.10
3850;DHT22;1940;51.052;13.678;2023-08-01T09:26:14;20.50;83.10
3850;DHT22;1940;51.052;13.678;2023-08-01T09:28:40;20.40;84.10
3850;DHT22;1940;51.052;13.678;2023-08-01T09:31:06;20.50;84.40
3850;DHT22;1940;51.052;13.678;2023-08-01T09:33:38;20.40;83.00
3850;DHT22;1940;51.052;13.678;2023-08-01T09:36:06;20.30;83.70
3850;DHT22;1940;51.052;13.678;2023-08-01T09:38:34;20.20;83.20
3850;DHT22;1940;51.052;13.678;2023-08-01T09:41:00;20.10;83.60
3850;DHT22;1940;51.052;13.678;2023-08-01T09:43:33;20.20;83.10
3850;DHT22;1940;51.052;13.678;2023-08-01T09:46:00;20.30;83.00
3850;DHT22;1940;51.052;13.678;2023-08-01T09:48:27;20.50;82.10
3850;DHT22;1940;51.052;13.678;2023-08-01T09:51:04;20.70;81.30
3850;DHT22;1940;51.052;13.678;2023-08-01T09:53:31;20.90;81.10
3850;DHT22;1940;51.052;13.678;2023-08-01T09:56:00;21.00;80.20
3850;DHT22;1940;51.052;13.678;2023-08-01T09:58:34;21.10;79.70
3850;DHT22;1940;51.052;13.678;2023-08-01T10:01:00;21.10;80.10
3850;DHT22;1940;51.052;13.678;2023-08-01T10:03:29;21.10;78.50
3850;DHT22;1940;51.052;13.678;2023-08-01T10:05:56;21.10;78.60
3850;DHT22;1940;51.052;13.678;2023-08-01T10:08:23;21.10;79.10
3850;DHT22;1940;51.052;13.678;2023-08-01T10:10:49;21.10;78.40
3850;DHT22;1940;51.052;13.678;2023-08-01T10:13:14;21.10;79.20
3850;DHT22;1940;51.052;13.678;2023-08-01T10:15:41;21.10;78.40
3850;DHT22;1940;51.052;13.678;2023-08-01T10:18:07;21.20;79.00
3850;DHT22;1940;51.052;13.678;2023-08-01T10:20:36;21.30;77.80
3850;DHT22;1940;51.052;13.678;2023-08-01T10:23:01;21.30;77.80
3850;DHT22;1940;51.052;13.678;2023-08-01T10:25:29;21.30;77.10
3850;DHT22;1940;51.052;13.678;2023-08-01T10:28:03;21.40;76.80
3850;DHT22;1940;51.052;13.678;2023-08-01T10:30:29;21.50;75.60
3850;DHT22;1940;51.052;13.678;2023-08-01T10:46:24;22.90;72.00
3850;DHT22;1940;51.052;13.678;2023-08-01T10:48:53;23.20;71.60
3850;DHT22;1940;51.052;13.678;2023-08-01T10:51:19;23.50;71.30
3850;DHT22;1940;51.052;13.678;2023-08-01T10:53:45;24.10;70.80
3850;DHT22;1940;51.052;13.678;2023-08-01T10:56:18;24.20;68.30
3850;DHT22;1940;51.052;13.678;2023-08-01T10:58:46;24.50;67.80
3850;DHT22;1940;51.052;13.678;2023-08-01T11:01:11;24.60;68.50
3850;DHT22;1940;51.052;13.678;2023-08-01T11:03:38;24.90;66.90
3850;DHT22;1940;51.052;13.678;2023-08-01T11:06:04;24.90;67.10
3850;DHT22;1940;51.052;13.678;2023-08-01T11:08:37;25.00;67.90
3850;DHT22;1940;51.052;13.678;2023-08-01T11:11:04;24.80;66.70
3850;DHT22;1940;51.052;13.678;2023-08-01T11:13:30;24.50;66.00
3850;DHT22;1940;51.052;13.678;2023-08-01T11:15:57;24.40;66.30
3850;DHT22;1940;51.052;13.678;2023-08-01T11:18:22;24.20;66.20
3850;DHT22;1940;51.052;13.678;2023-08-01T11:20:48;24.20;66.20
3850;DHT22;1940;51.052;13.678;2023-08-01T11:23:13;24.20;67.20
3850;DHT22;1940;51.052;13.678;2023-08-01T11:25:41;24.20;67.10
3850;DHT22;1940;51.052;13.678;2023-08-01T11:28:15;24.10;67.60
3850;DHT22;1940;51.052;13.678;2023-08-01T11:30:41;24.20;67.10
3850;DHT22;1940;51.052;13.678;2023-08-01T11:33:24;24.40;66.70
3850;DHT22;1940;51.052;13.678;2023-08-01T11:35:51;24.20;67.00
3850;DHT22;1940;51.052;13.678;2023-08-01T11:38:17;24.40;67.40
3850;DHT22;1940;51.052;13.678;2023-08-01T11:40:43;24.60;66.50
3850;DHT22;1940;51.052;13.678;2023-08-01T11:43:09;24.70;65.90
3850;DHT22;1940;51.052;13.678;2023-08-01T11:45:34;24.50;66.10
3850;DHT22;1940;51.052;13.678;2023-08-01T11:48:00;24.40;66.50
3850;DHT22;1940;51.052;13.678;2023-08-01T11:50:26;24.20;66.80
3850;DHT22;1940;51.052;13.678;2023-08-01T11:52:52;24.10;68.00
3850;DHT22;1940;51.052;13.678;2023-08-01T11:55:20;24.00;67.10
3850;DHT22;1940;51.052;13.678;2023-08-01T11:57:56;23.90;67.60
3850;DHT22;1940;51.052;13.678;2023-08-01T12:00:24;23.60;68.60
3850;DHT22;1940;51.052;13.678;2023-08-01T12:02:50;23.50;68.70
3850;DHT22;1940;51.052;13.678;2023-08-01T12:05:23;23.30;69.50
3850;DHT22;1940;51.052;13.678;2023-08-01T12:07:49;22.90;71.20
3850;DHT22;1940;51.052;13.678;2023-08-01T12:10:14;22.80;72.20
3850;DHT22;1940;51.052;13.678;2023-08-01T12:12:48;22.30;75.10
3850;DHT22;1940;51.052;13.678;2023-08-01T12:15:15;21.60;79.10
3850;DHT22;1940;51.052;13.678;2023-08-01T12:17:41;20.70;83.80
3850;DHT22;1940;51.052;13.678;2023-08-01T12:20:07;20.00;85.60
3850;DHT22;1940;51.052;13.678;2023-08-01T12:22:33;19.50;86.40
3850;DHT22;1940;51.052;13.678;2023-08-01T12:24:58;19.00;88.10
3850;DHT22;1940;51.052;13.678;2023-08-01T12:27:23;18.80;89.60
3850;DHT22;1940;51.052;13.678;2023-08-01T12:29:49;18.60;90.60
3850;DHT22;1940;51.052;13.678;2023-08-01T12:32:14;18.60;91.40
3850;DHT22;1940;51.052;13.678;2023-08-01T12:34:40;18.50;91.80
3850;DHT22;1940;51.052;13.678;2023-08-01T12:37:06;18.50;92.60
3850;DHT22;1940;51.052;13.678;2023-08-01T12:39:31;18.50;93.10
3850;DHT22;1940;51.052;13.678;2023-08-01T12:41:57;18.50;93.50
3850;DHT22;1940;51.052;13.678;2023-08-01T12:44:22;18.50;93.60
3850;DHT22;1940;51.052;13.678;2023-08-01T12:46:48;18.50;93.60
3850;DHT22;1940;51.052;13.678;2023-08-01T12:49:14;18.50;93.90
3850;DHT22;1940;51.052;13.678;2023-08-01T12:51:39;18.50;94.20
3850;DHT22;1940;51.052;13.678;2023-08-01T12:54:05;18.50;94.20
3850;DHT22;1940;51.052;13.678;2023-08-01T12:56:31;18.60;93.70
3850;DHT22;1940;51.052;13.678;2023-08-01T12:58:57;18.60;93.60
3850;DHT22;1940;51.052;13.678;2023-08-01T13:01:22;18.70;93.20
3850;DHT22;1940;51.052;13.678;2023-08-01T13:03:48;18.90;92.30
3850;DHT22;1940;51.052;13.678;2023-08-01T13:06:13;19.00;91.90
3850;DHT22;1940;51.052;13.678;2023-08-01T13:08:39;19.20;92.00
3850;DHT22;1940;51.052;13.678;2023-08-01T13:11:14;19.40;91.60
3850;DHT22;1940;51.052;13.678;2023-08-01T13:13:41;19.70;91.50
3850;DHT22;1940;51.052;13.678;2023-08-01T13:16:07;20.10;90.40
3850;DHT22;1940;51.052;13.678;2023-08-01T13:18:33;20.40;88.60
3850;DHT22;1940;51.052;13.678;2023-08-01T13:20:58;20.60;87.90
3850;DHT22;1940;51.052;13.678;2023-08-01T13:23:25;20.90;86.90
3850;DHT22;1940;51.052;13.678;2023-08-01T13:25:51;21.10;86.00
3850;DHT22;1940;51.052;13.678;2023-08-01T13:28:16;21.30;85.80
3850;DHT22;1940;51.052;13.678;2023-08-01T13:30:42;21.50;86.00
3850;DHT22;1940;51.052;13.678;2023-08-01T13:33:07;21.90;83.90
3850;DHT22;1940;51.052;13.678;2023-08-01T13:35:33;22.00;83.40
3850;DHT22;1940;51.052;13.678;2023-08-01T13:37:59;22.10;84.10
3850;DHT22;1940;51.052;13.678;2023-08-01T13:40:25;22.30;83.00
3850;DHT22;1940;51.052;13.678;2023-08-01T13:42:50;22.40;81.10
3850;DHT22;1940;51.052;13.678;2023-08-01T13:45:16;22.30;79.60
3850;DHT22;1940;51.052;13.678;2023-08-01T13:47:42;22.20;79.60
3850;DHT22;1940;51.052;13.678;2023-08-01T13:50:07;22.00;80.30
3850;DHT22;1940;51.052;13.678;2023-08-01T13:52:34;22.10;80.60
3850;DHT22;1940;51.052;13.678;2023-08-01T13:54:59;22.30;79.40
3850;DHT22;1940;51.052;13.678;2023-08-01T13:57:27;22.20;78.80
3850;DHT22;1940;51.052;13.678;2023-08-01T13:59:53;22.10;79.10
3850;DHT22;1940;51.052;13.678;2023-08-01T14:02:19;22.20;79.50
3850;DHT22;1940;51.052;13.678;2023-08-01T14:04:44;22.10;79.20
3850;DHT22;1940;51.052;13.678;2023-08-01T14:07:10;22.10;78.90
3850;DHT22;1940;51.052;13.678;2023-08-01T14:09:35;21.90;79.20
3850;DHT22;1940;51.052;13.678;2023-08-01T14:12:01;21.90;79.20
3850;DHT22;1940;51.052;13.678;2023-08-01T14:14:27;22.10;79.70
3850;DHT22;1940;51.052;13.678;2023-08-01T14:16:52;22.20;79.50
3850;DHT22;1940;51.052;13.678;2023-08-01T14:19:18;22.40;79.40
3850;DHT22;1940;51.052;13.678;2023-08-01T14:21:44;22.40;77.50
3850;DHT22;1940;51.052;13.678;2023-08-01T14:24:09;22.50;78.00
3850;DHT22;1940;51.052;13.678;2023-08-01T14:26:36;22.40;76.70
3850;DHT22;1940;51.052;13.678;2023-08-01T14:29:01;22.30;76.80
3850;DHT22;1940;51.052;13.678;2023-08-01T14:31:27;22.40;76.80
3850;DHT22;1940;51.052;13.678;2023-08-01T14:33:53;22.50;76.50
3850;DHT22;1940;51.052;13.678;2023-08-01T14:36:19;22.50;77.40
3850;DHT22;1940;51.052;13.678;2023-08-01T14:38:44;22.60;76.60
3850;DHT22;1940;51.052;13.678;2023-08-01T14:41:10;22.60;76.10
3850;DHT22;1940;51.052;13.678;2023-08-01T14:43:35;22.60;75.60
3850;DHT22;1940;51.052;13.678;2023-08-01T14:46:01;22.60;76.50
3850;DHT22;1940;51.052;13.678;2023-08-01T14:48:28;22.70;76.70
3850;DHT22;1940;51.052;13.678;2023-08-01T14:50:53;22.80;76.90
3850;DHT22;1940;51.052;13.678;2023-08-01T14:53:19;22.80;76.10
3850;DHT22;1940;51.052;13.678;2023-08-01T14:55:44;22.90;75.70
3850;DHT22;1940;51.052;13.678;2023-08-01T14:58:10;22.80;74.90
3850;DHT22;1940;51.052;13.678;2023-08-01T15:00:36;22.80;74.70
3850;DHT22;1940;51.052;13.678;2023-08-01T15:03:02;22.90;73.80
3850;DHT22;1940;51.052;13.678;2023-08-01T15:05:27;23.10;74.20
3850;DHT22;1940;51.052;13.678;2023-08-01T15:07:53;23.10;74.70
3850;DHT22;1940;51.052;13.678;2023-08-01T15:10:18;23.30;74.10
3850;DHT22;1940;51.052;13.678;2023-08-01T15:12:44;23.30;73.40
3850;DHT22;1940;51.052;13.678;2023-08-01T15:15:09;23.30;72.20
3850;DHT22;1940;51.052;13.678;2023-08-01T15:17:35;23.40;72.10
3850;DHT22;1940;51.052;13.678;2023-08-01T15:20:01;23.40;72.10
3850;DHT22;1940;51.052;13.678;2023-08-01T15:22:28;23.30;72.30
3850;DHT22;1940;51.052;13.678;2023-08-01T15:24:53;23.40;71.50
3850;DHT22;1940;51.052;13.678;2023-08-01T15:27:19;23.20;71.30
3850;DHT22;1940;51.052;13.678;2023-08-01T15:29:45;23.00;72.20
3850;DHT22;1940;51.052;13.678;2023-08-01T15:32:12;22.90;72.60
3850;DHT22;1940;51.052;13.678;2023-08-01T15:34:38;22.70;72.80
3850;DHT22;1940;51.052;13.678;2023-08-01T15:37:07;22.70;72.90
3850;DHT22;1940;51.052;13.678;2023-08-01T15:39:32;22.40;73.60
3850;DHT22;1940;51.052;13.678;2023-08-01T15:41:58;22.30;73.10
3850;DHT22;1940;51.052;13.678;2023-08-01T15:44:23;22.10;72.90
3850;DHT22;1940;51.052;13.678;2023-08-01T15:46:49;22.00;72.40
3850;DHT22;1940;51.052;13.678;2023-08-01T15:49:14;21.80;73.40
3850;DHT22;1940;51.052;13.678;2023-08-01T15:51:40;21.80;73.20
3850;DHT22;1940;51.052;13.678;2023-08-01T15:54:05;21.80;73.50
3850;DHT22;1940;51.052;13.678;2023-08-01T15:56:31;21.90;73.30
3850;DHT22;1940;51.052;13.678;2023-08-01T15:59:00;22.10;73.10
3850;DHT22;1940;51.052;13.678;2023-08-01T16:01:35;22.20;72.10
3850;DHT22;1940;51.052;13.678;2023-08-01T16:04:11;22.30;71.20